Big Rapids, MI

7:11 PM EDT on September 22, 2019 (GMT -0400)
Roben-Hood

Weather History for KRQB - July, 2019

Change the Weather History Date:

Sunday, July 14, 2019

  Actual Average Record
Temperature  
Mean Temperature 67 °F -  
Max Temperature 83 °F 82 °F 96 °F (1983)
Min Temperature 51 °F 58 °F 44 °F (2001)
Cooling Degree Days 2    
Growing Degree Days 17 (Base 50)    
Moisture  
Dew Point 53 °F    
Average Humidity 62    
Maximum Humidity 94    
Minimum Humidity 31    
Precipitation  
Precipitation 0.00 in - - ()
Sea Level Pressure  
Sea Level Pressure 30.14 in    
Wind  
Wind Speed 2 mph (NW)    
Max Wind Speed 10 mph    
Max Gust Speed -    
Visibility 10 miles    
Events      
Averages and records for this station are not official NWS values.
T = Trace of Precipitation, MM = Missing Value Source: NWS Daily Summary

Daily Weather History Graph

Daily Weather History Graph

Search for Another Location

Airport or City:

Astronomy

Jul. 14, 2019 Rise Set
Actual Time 6:13 AM EDT 9:22 PM EDT
Civil Twilight 5:38 AM EDT 9:56 PM EDT
Nautical Twilight 4:53 AM EDT 10:41 PM EDT
Astronomical Twilight 3:58 AM EDT 11:35 PM EDT
Moon 7:44 PM EDT (7/14) 4:14 AM EDT (7/14)
Length of Visible Light 16h 18m
Length of Day
15h 09m
Waxing Gibbous, 95% of the Moon is Illuminated
Jul 14
Waxing Gibbous
Jul 16
Full
Jul 24
Last Quarter
Jul 31
New
Aug 7
First Quarter

Hourly Weather History & Observations

Time (EDT) Temp. Heat Index Dew Point Humidity Pressure Visibility Wind Dir Wind Speed Gust Speed Precip Events Conditions
12:17 AM 64.8 °F - 54.5 °F 69% 30.09 in 10.0 mi NW 4.6 mph - N/A   Clear
12:35 AM 63.7 °F - 54.5 °F 72% 30.09 in 10.0 mi WNW 5.8 mph - N/A   Clear
12:36 AM 63.7 °F - 54.5 °F 72% 30.09 in 10.0 mi WNW 5.8 mph - N/A   Clear
12:55 AM 59.9 °F - 54.9 °F 83% 30.10 in 10.0 mi Calm Calm - N/A   Clear
1:19 AM 61.0 °F - 55.2 °F 81% 30.11 in 10.0 mi NW 4.6 mph - N/A   Clear
1:37 AM 59.0 °F - 53.6 °F 82% 30.11 in 10.0 mi NNW 3.5 mph - N/A   Clear
1:55 AM 59.7 °F - 55.2 °F 85% 30.11 in 10.0 mi NW 3.5 mph - N/A   Clear
2:15 AM 59.4 °F - 53.2 °F 80% 30.12 in 10.0 mi Calm Calm - N/A   Clear
2:38 AM 57.2 °F - 53.4 °F 87% 30.12 in 10.0 mi Calm Calm - N/A   Clear
2:57 AM 56.7 °F - 53.1 °F 88% 30.12 in 10.0 mi Calm Calm - N/A   Clear
3:15 AM 56.7 °F - 53.6 °F 89% 30.12 in 10.0 mi Calm Calm - N/A   Clear
3:16 AM 56.7 °F - 53.6 °F 89% 30.12 in 10.0 mi Calm Calm - N/A   Clear
3:35 AM 56.1 °F - 52.2 °F 87% 30.12 in 10.0 mi Calm Calm - N/A   Clear
3:36 AM 55.9 °F - 52.2 °F 87% 30.12 in 10.0 mi Calm Calm - N/A   Clear
3:55 AM 55.6 °F - 52.2 °F 88% 30.12 in 10.0 mi West 3.5 mph - N/A   Clear
4:00 AM 55.4 °F - 52.2 °F 89% 30.12 in 10.0 mi West 4.6 mph - N/A   Clear
4:18 AM 55.2 °F - 52.2 °F 89% 30.12 in 10.0 mi West 3.5 mph - N/A   Clear
4:36 AM 54.9 °F - 51.8 °F 89% 30.12 in 10.0 mi Calm Calm - N/A   Clear
4:55 AM 54.3 °F - 50.9 °F 88% 30.12 in 10.0 mi Calm Calm - N/A   Clear
4:56 AM 54.1 °F - 50.5 °F 88% 30.12 in 10.0 mi Calm Calm - N/A   Clear
5:15 AM 53.2 °F - 50.9 °F 92% 30.13 in 10.0 mi Calm Calm - N/A   Clear
5:20 AM 53.4 °F - 50.9 °F 91% 30.13 in 10.0 mi Calm Calm - N/A   Clear
5:38 AM 52.5 °F - 50.0 °F 91% 30.14 in 10.0 mi Calm Calm - N/A   Clear
5:56 AM 51.3 °F - 49.3 °F 93% 30.14 in 10.0 mi Calm Calm - N/A   Clear
6:15 AM 51.6 °F - 49.6 °F 93% 30.14 in 10.0 mi Calm Calm - N/A   Clear
6:16 AM 51.8 °F - 49.8 °F 93% 30.14 in 10.0 mi Calm Calm - N/A   Clear
6:35 AM 51.4 °F - 49.5 °F 93% 30.14 in 10.0 mi Calm Calm - N/A   Clear
6:59 AM 52.5 °F - 50.7 °F 94% 30.15 in 10.0 mi Calm Calm - N/A   Clear
7:17 AM 53.6 °F - 51.3 °F 92% 30.15 in 10.0 mi Calm Calm - N/A   Scattered Clouds
7:35 AM 55.6 °F - 52.7 °F 90% 30.16 in 10.0 mi Calm Calm - N/A   Clear
7:36 AM 55.8 °F - 52.9 °F 90% 30.16 in 10.0 mi Calm Calm - N/A   Clear
7:55 AM 57.4 °F - 54.0 °F 88% 30.17 in 10.0 mi Calm Calm - N/A   Scattered Clouds
8:15 AM 59.9 °F - 54.7 °F 83% 30.19 in 10.0 mi Calm Calm - N/A   Clear
8:19 AM 60.1 °F - 54.5 °F 82% 30.19 in 10.0 mi Calm Calm - N/A   Clear
8:36 AM 62.4 °F - 55.0 °F 77% 30.19 in 10.0 mi Calm Calm - N/A   Scattered Clouds
8:55 AM 64.6 °F - 52.3 °F 64% 30.19 in 10.0 mi SE 3.5 mph - N/A   Clear
8:56 AM 64.8 °F - 52.2 °F 64% 30.19 in 10.0 mi Calm Calm - N/A   Clear
9:15 AM 66.2 °F - 52.7 °F 62% 30.19 in 10.0 mi WNW 4.6 mph - N/A   Clear
9:16 AM 66.4 °F - 52.7 °F 61% 30.19 in 10.0 mi NW 5.8 mph - N/A   Clear
9:38 AM 67.5 °F - 52.9 °F 59% 30.19 in 10.0 mi NE 3.5 mph - N/A   Clear
9:55 AM 69.1 °F - 52.9 °F 56% 30.19 in 10.0 mi East 3.5 mph - N/A   Clear
10:15 AM 70.5 °F - 52.7 °F 53% 30.19 in 10.0 mi East 3.5 mph - N/A   Clear
10:16 AM 70.5 °F - 52.7 °F 53% 30.19 in 10.0 mi East 3.5 mph - N/A   Clear
10:35 AM 71.6 °F - 52.9 °F 52% 30.19 in 10.0 mi SE 3.5 mph - N/A   Clear
10:40 AM 72.3 °F - 53.6 °F 52% 30.18 in 10.0 mi ENE 4.6 mph - N/A   Clear
10:58 AM 73.2 °F - 53.2 °F 49% 30.18 in 10.0 mi ESE 4.6 mph - N/A   Clear
11:16 AM 74.1 °F - 51.3 °F 45% 30.17 in 10.0 mi North 3.5 mph - N/A   Clear
11:35 AM 74.7 °F - 52.0 °F 45% 30.17 in 10.0 mi Calm Calm - N/A   Clear
11:36 AM 74.7 °F - 51.6 °F 44% 30.17 in 10.0 mi Calm Calm - N/A   Clear
11:55 AM 75.6 °F - 50.7 °F 42% 30.18 in 10.0 mi ENE 3.5 mph - N/A   Clear
12:19 PM 75.6 °F - 50.0 °F 41% 30.17 in 10.0 mi WNW 8.1 mph - N/A   Clear
12:36 PM 76.6 °F - 50.0 °F 39% 30.17 in 10.0 mi NNW 3.5 mph - N/A   Clear
12:55 PM 76.6 °F - 48.0 °F 36% 30.17 in 10.0 mi ENE 3.5 mph - N/A   Clear
12:56 PM 76.8 °F - 48.7 °F 37% 30.17 in 10.0 mi NNE 3.5 mph - N/A   Clear
1:15 PM 78.4 °F - 49.1 °F 36% 30.16 in 10.0 mi North 4.6 mph - N/A   Clear
1:39 PM 79.0 °F - 48.7 °F 35% 30.16 in 10.0 mi North 3.5 mph - N/A   Clear
1:57 PM 78.3 °F - 47.8 °F 34% 30.15 in 10.0 mi Calm Calm - N/A   Clear
2:15 PM 79.2 °F - 48.2 °F 34% 30.15 in 10.0 mi WNW 4.6 mph - N/A   Clear
2:16 PM 79.3 °F - 48.2 °F 33% 30.15 in 10.0 mi NW 5.8 mph - N/A   Clear
2:35 PM 79.7 °F - 49.5 °F 35% 30.14 in 10.0 mi NE 3.5 mph - N/A   Clear
2:55 PM 80.1 °F - 48.9 °F 34% 30.14 in 10.0 mi West 3.5 mph - N/A   Clear
3:00 PM 81.3 °F - 48.9 °F 32% 30.14 in 10.0 mi SW 3.5 mph - N/A   Clear
3:18 PM 80.6 °F - 49.8 °F 34% 30.14 in 10.0 mi Calm Calm - N/A   Clear
3:36 PM 81.0 °F - 49.1 °F 33% 30.14 in 10.0 mi Calm Calm - N/A   Clear
3:55 PM 81.9 °F - 50.0 °F 33% 30.13 in 10.0 mi WSW 3.5 mph - N/A   Clear
4:15 PM 81.7 °F - 50.0 °F 33% 30.13 in 10.0 mi NW 4.6 mph - N/A   Clear
4:16 PM 81.9 °F - 50.2 °F 33% 30.13 in 10.0 mi NW 5.8 mph - N/A   Clear
4:39 PM 82.9 °F - 49.1 °F 31% 30.13 in 10.0 mi Calm Calm - N/A   Clear
4:57 PM 83.8 °F - 50.0 °F 31% 30.12 in 10.0 mi West 4.6 mph - N/A   Clear
5:15 PM 82.9 °F - 50.9 °F 33% 30.12 in 10.0 mi WSW 4.6 mph - N/A   Clear
5:35 PM 83.3 °F - 49.5 °F 31% 30.11 in 10.0 mi Calm Calm - N/A   Clear
5:36 PM 83.3 °F - 49.6 °F 31% 30.11 in 10.0 mi Calm Calm - N/A   Clear
5:59 PM 82.6 °F - 50.4 °F 33% 30.11 in 10.0 mi WNW 3.5 mph - N/A   Clear
6:17 PM 82.4 °F - 52.3 °F 35% 30.11 in 10.0 mi WSW 5.8 mph - N/A   Clear
6:35 PM 81.9 °F - 50.5 °F 34% 30.11 in 10.0 mi Calm Calm - N/A   Clear
6:55 PM 82.4 °F - 50.5 °F 33% 30.10 in 10.0 mi NW 3.5 mph - N/A   Clear
6:56 PM 82.4 °F - 50.5 °F 33% 30.10 in 10.0 mi Calm Calm - N/A   Clear
7:18 PM 82.6 °F - 51.1 °F 33% 30.10 in 10.0 mi Calm Calm - N/A   Clear
7:36 PM 81.9 °F - 52.0 °F 35% 30.10 in 10.0 mi Calm Calm - N/A   Clear
7:55 PM 80.1 °F 80.2 °F 55.6 °F 43% 30.10 in 10.0 mi WSW 3.5 mph - N/A   Clear
7:56 PM 79.9 °F - 55.8 °F 43% 30.10 in 10.0 mi WSW 3.5 mph - N/A   Clear
8:15 PM 76.5 °F - 60.1 °F 57% 30.10 in 10.0 mi Calm Calm - N/A   Clear
8:39 PM 77.0 °F - 60.1 °F 56% 30.09 in 10.0 mi Calm Calm - N/A   Clear
8:57 PM 75.2 °F - 60.6 °F 60% 30.09 in 10.0 mi Calm Calm - N/A   Clear
9:15 PM 72.5 °F - 61.2 °F 67% 30.09 in 10.0 mi West 3.5 mph - N/A   Clear
9:16 PM 72.5 °F - 61.0 °F 67% 30.09 in 10.0 mi West 3.5 mph - N/A   Clear
9:35 PM 70.7 °F - 60.8 °F 71% 30.09 in 10.0 mi West 10.4 mph - N/A   Clear
9:55 PM 70.7 °F - 59.7 °F 68% 30.10 in 10.0 mi WNW 5.8 mph - N/A   Clear
10:00 PM 68.7 °F - 60.1 °F 74% 30.11 in 10.0 mi West 3.5 mph - N/A   Clear
10:18 PM 68.9 °F - 60.3 °F 74% 30.11 in 10.0 mi Calm Calm - N/A   Clear
10:35 PM 67.3 °F - 60.1 °F 78% 30.12 in 10.0 mi Calm Calm - N/A   Clear
10:55 PM 66.6 °F - 60.3 °F 80% 30.12 in 10.0 mi West 6.9 mph - N/A   Clear
10:56 PM 66.6 °F - 60.3 °F 80% 30.12 in 10.0 mi West 3.5 mph - N/A   Clear
11:15 PM 64.2 °F - 59.2 °F 84% 30.12 in 10.0 mi Calm Calm - N/A   Clear
11:38 PM 64.4 °F - 58.8 °F 82% 30.12 in 10.0 mi Calm Calm - N/A   Clear
11:56 PM 64.0 °F - 59.0 °F 84% 30.12 in 10.0 mi Calm Calm - N/A   Clear